createdAt,value
2023-03-10T00:01:12.098Z,15.35
2023-03-10T00:03:40.372Z,15.30
2023-03-10T00:06:09.386Z,15.25
2023-03-10T00:08:37.335Z,15.20
2023-03-10T00:11:05.447Z,15.11
2023-03-10T00:13:33.408Z,15.07
2023-03-10T00:16:02.926Z,14.97
2023-03-10T00:18:32.622Z,14.90
2023-03-10T00:21:01.227Z,14.86
2023-03-10T00:23:29.421Z,14.79
2023-03-10T00:25:58.620Z,14.76
2023-03-10T00:28:27.755Z,14.75
2023-03-10T00:31:00.747Z,14.71
2023-03-10T00:33:31.330Z,14.72
2023-03-10T00:36:04.674Z,14.75
2023-03-10T00:38:32.998Z,14.78
2023-03-10T00:41:01.863Z,14.81
2023-03-10T00:43:30.647Z,14.82
2023-03-10T00:45:58.868Z,14.83
2023-03-10T00:48:27.229Z,14.86
2023-03-10T00:50:59.080Z,14.86
2023-03-10T00:53:27.619Z,14.87
2023-03-10T00:56:01.068Z,14.86
2023-03-10T00:58:29.867Z,14.84
2023-03-10T01:00:58.033Z,14.85
2023-03-10T01:03:27.834Z,14.82
2023-03-10T01:05:58.527Z,14.82
2023-03-10T01:08:26.745Z,14.78
2023-03-10T01:10:54.739Z,14.78
2023-03-10T01:13:22.935Z,14.74
2023-03-10T01:15:51.284Z,14.67
2023-03-10T01:18:20.786Z,14.61
2023-03-10T01:20:49.622Z,14.56
2023-03-10T01:23:21.957Z,14.48
2023-03-10T01:25:50.864Z,14.41
2023-03-10T01:28:19.696Z,14.37
2023-03-10T01:30:48.826Z,14.27
2023-03-10T01:33:18.591Z,14.25
2023-03-10T01:35:46.646Z,14.11
2023-03-10T01:38:15.364Z,14.00
2023-03-10T01:40:49.870Z,13.99
2023-03-10T01:43:35.334Z,13.78
2023-03-10T01:46:40.874Z,13.67
2023-03-10T01:49:15.662Z,13.54
2023-03-10T01:51:48.674Z,13.49
2023-03-10T01:54:20.106Z,13.43
2023-03-10T01:56:52.359Z,13.36
2023-03-10T01:59:21.895Z,13.34
2023-03-10T02:01:51.878Z,13.26
2023-03-10T02:04:24.564Z,13.23
2023-03-10T02:06:53.342Z,13.20
2023-03-10T02:09:22.716Z,13.15
2023-03-10T02:11:52.894Z,13.15
2023-03-10T02:14:21.323Z,13.15
2023-03-10T02:16:49.322Z,13.11
2023-03-10T02:19:30.837Z,13.09
2023-03-10T02:22:06.129Z,13.11
2023-03-10T02:24:43.072Z,13.11
2023-03-10T02:27:17.365Z,13.13
2023-03-10T02:29:59.406Z,13.08
2023-03-10T02:32:29.771Z,13.07
2023-03-10T02:34:57.811Z,13.00
2023-03-10T02:37:30.098Z,12.94
2023-03-10T02:39:58.934Z,12.92
2023-03-10T02:42:32.460Z,12.87
2023-03-10T02:45:00.874Z,12.81
2023-03-10T02:47:29.091Z,12.75
2023-03-10T02:49:56.999Z,12.68
2023-03-10T02:52:33.453Z,12.61
2023-03-10T02:55:01.438Z,12.48
2023-03-10T02:57:30.902Z,12.37
2023-03-10T02:59:58.913Z,12.25
2023-03-10T03:02:26.939Z,12.10
2023-03-10T03:04:54.915Z,11.93
2023-03-10T03:07:22.780Z,11.80
2023-03-10T03:09:50.724Z,11.56
2023-03-10T03:12:18.640Z,11.45
2023-03-10T03:14:48.907Z,11.33
2023-03-10T03:17:16.842Z,11.24
2023-03-10T03:19:44.888Z,11.25
2023-03-10T03:22:13.090Z,11.21
2023-03-10T03:24:41.343Z,11.19
2023-03-10T03:27:09.544Z,11.15
2023-03-10T03:29:37.473Z,11.16
2023-03-10T03:32:08.019Z,11.18
2023-03-10T03:34:35.981Z,11.21
2023-03-10T03:37:04.045Z,11.27
2023-03-10T03:39:32.265Z,11.28
2023-03-10T03:42:00.175Z,11.30
2023-03-10T03:44:28.393Z,11.34
2023-03-10T03:46:56.389Z,11.26
2023-03-10T03:49:25.713Z,11.22
2023-03-10T03:51:54.019Z,11.25
2023-03-10T03:54:21.916Z,11.25
2023-03-10T03:56:49.852Z,11.29
2023-03-10T03:59:17.996Z,11.25
2023-03-10T04:01:46.169Z,11.20
2023-03-10T04:04:14.198Z,11.15
2023-03-10T04:06:43.640Z,11.15
2023-03-10T04:09:13.725Z,11.14
2023-03-10T04:11:41.552Z,11.18
2023-03-10T04:14:09.498Z,11.13
2023-03-10T04:16:37.380Z,11.12
2023-03-10T04:19:07.680Z,11.12
2023-03-10T04:21:36.048Z,11.07
2023-03-10T04:24:06.547Z,11.11
2023-03-10T04:26:34.602Z,11.01
2023-03-10T04:29:02.566Z,10.98
2023-03-10T04:31:30.613Z,10.98
2023-03-10T04:33:58.547Z,10.96
2023-03-10T04:36:26.470Z,10.97
2023-03-10T04:38:54.649Z,10.94
2023-03-10T04:41:24.003Z,10.97
2023-03-10T04:43:51.998Z,10.93
2023-03-10T04:46:20.016Z,10.93
2023-03-10T04:48:47.905Z,10.90
2023-03-10T04:51:15.890Z,10.89
2023-03-10T04:53:43.825Z,10.88
2023-03-10T04:56:12.796Z,10.84
2023-03-10T04:58:42.380Z,10.81
2023-03-10T05:01:12.817Z,10.87
2023-03-10T05:03:41.036Z,10.79
2023-03-10T05:06:13.377Z,10.72
2023-03-10T05:08:41.569Z,10.55
2023-03-10T05:11:10.431Z,10.49
2023-03-10T05:13:38.402Z,10.41
2023-03-10T05:16:13.896Z,10.27
2023-03-10T05:18:41.912Z,10.23
2023-03-10T05:21:10.002Z,10.18
2023-03-10T05:23:38.605Z,10.17
2023-03-10T05:26:07.375Z,10.05
2023-03-10T05:28:35.675Z,10.05
2023-03-10T05:31:11.773Z,10.05
2023-03-10T05:33:39.714Z,10.01
2023-03-10T05:36:09.172Z,10.02
2023-03-10T05:38:37.635Z,9.99
2023-03-10T05:41:09.076Z,10.01
2023-03-10T05:43:38.413Z,9.96
2023-03-10T05:46:07.096Z,9.98
2023-03-10T05:48:36.958Z,10.04
2023-03-10T05:51:07.521Z,10.06
2023-03-10T05:53:37.733Z,10.10
2023-03-10T05:56:10.581Z,10.15
2023-03-10T05:58:39.176Z,10.07
2023-03-10T06:01:07.904Z,10.11
2023-03-10T06:03:38.677Z,10.02
2023-03-10T06:06:07.868Z,10.00
2023-03-10T06:08:37.117Z,9.93
2023-03-10T06:11:06.286Z,9.91
2023-03-10T06:13:34.258Z,9.79
2023-03-10T06:16:04.905Z,9.71
2023-03-10T06:18:34.059Z,9.44
2023-03-10T06:21:06.609Z,9.23
2023-03-10T06:23:34.422Z,9.13
2023-03-10T06:26:06.141Z,9.01
2023-03-10T06:28:36.723Z,8.99
2023-03-10T06:31:08.241Z,9.03
2023-03-10T06:33:37.030Z,9.06
2023-03-10T06:36:08.085Z,9.02
2023-03-10T06:38:36.011Z,9.10
2023-03-10T06:41:04.287Z,9.10
2023-03-10T06:43:32.924Z,9.11
2023-03-10T06:46:01.337Z,9.11
2023-03-10T06:48:29.245Z,9.07
2023-03-10T06:50:57.294Z,9.05
2023-03-10T06:53:28.274Z,9.05
2023-03-10T06:56:00.291Z,9.05
2023-03-10T06:58:28.519Z,9.06
2023-03-10T07:00:57.064Z,9.08
2023-03-10T07:03:26.343Z,9.09
2023-03-10T07:05:54.296Z,9.12
2023-03-10T07:08:22.736Z,9.13
2023-03-10T07:10:52.161Z,9.20
2023-03-10T07:13:22.053Z,9.21
2023-03-10T07:15:50.752Z,9.22
2023-03-10T07:18:18.856Z,9.23
2023-03-10T07:20:47.932Z,9.23
2023-03-10T07:23:16.521Z,9.19
2023-03-10T07:25:44.364Z,9.24
2023-03-10T07:28:13.815Z,9.26
2023-03-10T07:30:42.096Z,9.27
2023-03-10T07:33:10.433Z,9.28
2023-03-10T07:35:39.306Z,9.31
2023-03-10T07:38:07.348Z,9.32
2023-03-10T07:40:35.534Z,9.36
2023-03-10T07:43:03.497Z,9.37
2023-03-10T07:45:33.709Z,9.42
2023-03-10T07:48:01.706Z,9.42
2023-03-10T07:50:29.947Z,9.43
2023-03-10T07:52:57.863Z,9.47
2023-03-10T07:55:26.023Z,9.45
2023-03-10T07:57:57.008Z,9.46
2023-03-10T08:00:25.425Z,9.42
2023-03-10T08:02:54.801Z,9.42
2023-03-10T08:05:23.024Z,9.38
2023-03-10T08:07:51.082Z,9.36
2023-03-10T08:10:20.743Z,9.37
2023-03-10T08:12:48.688Z,9.40
2023-03-10T08:15:17.087Z,9.39
2023-03-10T08:17:45.247Z,9.41
2023-03-10T08:20:15.739Z,9.43
2023-03-10T08:22:43.668Z,9.45
2023-03-10T08:25:12.821Z,9.43
2023-03-10T08:27:41.599Z,9.43
2023-03-10T08:30:10.940Z,9.46
2023-03-10T08:32:39.139Z,9.49
2023-03-10T08:35:08.883Z,9.49
2023-03-10T08:37:38.779Z,9.51
2023-03-10T08:40:08.280Z,9.60
2023-03-10T08:42:37.171Z,9.56
2023-03-10T08:45:08.518Z,9.53
2023-03-10T08:47:37.329Z,9.49
2023-03-10T08:50:07.044Z,9.52
2023-03-10T08:52:35.295Z,9.51
2023-03-10T08:55:05.684Z,9.54
2023-03-10T08:57:34.062Z,9.60
2023-03-10T09:00:02.029Z,9.71
2023-03-10T09:02:30.442Z,9.69
2023-03-10T09:04:58.359Z,9.73
2023-03-10T09:07:26.555Z,9.75
2023-03-10T09:09:54.473Z,9.77
2023-03-10T09:12:24.029Z,9.76
2023-03-10T09:14:52.212Z,9.73
2023-03-10T09:17:20.313Z,9.74
2023-03-10T09:19:49.020Z,9.66
2023-03-10T09:22:17.276Z,9.69
2023-03-10T09:24:45.470Z,9.72
2023-03-10T09:27:13.375Z,9.75
2023-03-10T09:29:43.775Z,9.76
2023-03-10T09:32:12.351Z,9.75
2023-03-10T09:34:40.648Z,9.73
2023-03-10T09:37:09.226Z,9.80
2023-03-10T09:39:37.159Z,9.91
2023-03-10T09:42:38.333Z,10.09
2023-03-10T09:45:19.576Z,10.16
2023-03-10T09:47:56.841Z,10.27
2023-03-10T09:50:31.391Z,10.38
2023-03-10T09:53:04.299Z,10.44
2023-03-10T09:55:42.458Z,10.47
2023-03-10T09:58:21.898Z,10.56
2023-03-10T10:00:52.833Z,10.58
2023-03-10T10:03:23.257Z,10.58
2023-03-10T10:05:55.549Z,10.57
2023-03-10T10:08:28.834Z,10.57
2023-03-10T10:10:59.157Z,10.60
2023-03-10T10:13:30.710Z,10.63
2023-03-10T10:16:24.378Z,10.63
2023-03-10T10:19:04.351Z,10.73
2023-03-10T10:21:42.708Z,10.82
2023-03-10T10:24:11.493Z,10.86
2023-03-10T10:26:39.309Z,10.89
2023-03-10T10:29:17.117Z,10.89
2023-03-10T10:32:18.210Z,10.92
2023-03-10T10:34:48.751Z,10.95
2023-03-10T10:37:28.236Z,11.00
2023-03-10T10:39:59.028Z,11.05
2023-03-10T10:42:30.350Z,11.07
2023-03-10T10:45:00.201Z,11.11
2023-03-10T10:47:32.700Z,11.13
2023-03-10T10:50:19.928Z,11.10
2023-03-10T10:52:50.647Z,11.04
2023-03-10T10:55:34.511Z,11.02
2023-03-10T10:58:04.254Z,11.01
2023-03-10T11:00:34.611Z,11.00
2023-03-10T11:03:20.574Z,10.98
2023-03-10T11:05:48.791Z,10.92
2023-03-10T11:08:30.710Z,10.89
2023-03-10T11:11:04.439Z,10.97
2023-03-10T11:13:43.183Z,11.03
2023-03-10T11:19:23.172Z,11.28
2023-03-10T11:21:55.919Z,11.39
2023-03-10T11:24:33.184Z,11.42
2023-03-10T11:27:05.727Z,11.48
2023-03-10T11:29:49.215Z,11.55
2023-03-10T11:32:26.710Z,11.59
2023-03-10T11:34:56.571Z,11.57
2023-03-10T11:37:33.406Z,11.59
2023-03-10T11:40:16.359Z,11.59
2023-03-10T11:42:52.571Z,11.63
2023-03-10T11:45:28.326Z,11.66
2023-03-10T11:48:07.892Z,11.68
2023-03-10T11:50:46.536Z,11.68
2023-03-10T11:53:20.080Z,11.72
2023-03-10T11:55:50.794Z,11.73
2023-03-10T11:58:27.111Z,11.67
2023-03-10T12:00:55.823Z,11.63
2023-03-10T12:03:40.219Z,11.61
2023-03-10T12:06:15.275Z,11.59
2023-03-10T12:08:44.125Z,11.47
2023-03-10T12:11:17.961Z,11.40
2023-03-10T12:13:48.336Z,11.32
2023-03-10T12:19:32.137Z,11.29
2023-03-10T12:22:26.505Z,11.39
2023-03-10T12:24:54.433Z,11.46
2023-03-10T12:27:22.288Z,11.63
2023-03-10T12:29:50.226Z,11.80
2023-03-10T12:32:41.916Z,11.93
2023-03-10T12:35:46.278Z,11.98
2023-03-10T12:38:37.269Z,12.04
2023-03-10T12:41:05.860Z,12.11
2023-03-10T12:44:01.616Z,12.24
2023-03-10T12:46:41.561Z,12.36
2023-03-10T12:49:30.038Z,12.50
2023-03-10T12:52:14.078Z,12.66
2023-03-10T12:54:53.590Z,12.79
2023-03-10T12:57:29.939Z,12.79
2023-03-10T13:00:03.007Z,12.73
2023-03-10T13:02:37.440Z,12.69
2023-03-10T13:05:08.584Z,12.58
2023-03-10T13:07:36.844Z,12.54
2023-03-10T13:10:08.141Z,12.52
2023-03-10T13:12:48.172Z,12.56
2023-03-10T13:15:24.906Z,12.69
2023-03-10T13:17:55.253Z,12.75
2023-03-10T13:20:24.079Z,12.77
2023-03-10T13:22:56.451Z,12.79
2023-03-10T13:25:27.717Z,12.90
2023-03-10T13:27:57.466Z,12.98
2023-03-10T13:30:27.914Z,13.05
2023-03-10T13:32:57.489Z,13.08
2023-03-10T13:35:31.265Z,13.06
2023-03-10T13:38:12.300Z,13.03
2023-03-10T13:40:45.125Z,13.03
2023-03-10T13:43:36.674Z,13.07
2023-03-10T13:46:09.691Z,13.09
2023-03-10T13:48:38.685Z,13.08
2023-03-10T13:51:20.322Z,13.05
2023-03-10T13:53:52.614Z,13.08
2023-03-10T13:56:24.816Z,13.13
2023-03-10T13:58:56.164Z,13.26
2023-03-10T14:01:26.048Z,13.40
2023-03-10T14:03:57.708Z,13.59
2023-03-10T14:06:27.048Z,13.75
2023-03-10T14:08:55.526Z,13.94
2023-03-10T14:11:33.245Z,14.16
2023-03-10T14:14:01.906Z,14.41
2023-03-10T14:16:50.849Z,14.51
2023-03-10T14:19:48.253Z,14.61
2023-03-10T14:22:38.126Z,14.71
2023-03-10T14:25:17.196Z,14.80
2023-03-10T14:27:48.814Z,14.88
2023-03-10T14:30:21.923Z,14.87
2023-03-10T14:32:53.781Z,14.82
2023-03-10T14:35:23.813Z,14.72
2023-03-10T14:37:53.274Z,14.72
2023-03-10T14:40:23.646Z,14.76
2023-03-10T14:42:55.663Z,14.87
2023-03-10T14:45:30.697Z,14.98
2023-03-10T14:48:00.346Z,15.01
2023-03-10T14:50:29.900Z,14.95
2023-03-10T14:52:57.809Z,14.85
2023-03-10T14:55:26.061Z,14.80
2023-03-10T14:58:00.081Z,14.75
2023-03-10T15:00:28.442Z,14.59
2023-03-10T15:02:56.372Z,14.41
2023-03-10T15:05:34.598Z,14.26
2023-03-10T15:08:05.325Z,14.11
2023-03-10T15:10:37.198Z,13.96
2023-03-10T15:13:06.495Z,13.85
2023-03-10T15:15:39.617Z,13.75
2023-03-10T15:18:08.313Z,13.65
2023-03-10T15:20:36.362Z,13.64
2023-03-10T15:23:04.337Z,13.62
2023-03-10T15:25:32.305Z,13.65
2023-03-10T15:28:00.299Z,13.70
2023-03-10T15:30:32.179Z,13.72
2023-03-10T15:33:00.316Z,13.76
2023-03-10T15:35:29.282Z,13.76
2023-03-10T15:37:58.184Z,13.74
2023-03-10T15:40:29.121Z,13.72
2023-03-10T15:42:57.892Z,13.69
2023-03-10T15:45:26.427Z,13.74
2023-03-10T15:47:55.987Z,13.86
2023-03-10T15:50:24.349Z,14.03
2023-03-10T15:52:54.369Z,14.20
2023-03-10T15:55:23.416Z,14.32
2023-03-10T15:57:51.686Z,14.41
2023-03-10T16:00:21.713Z,14.40
2023-03-10T16:02:51.220Z,14.36
2023-03-10T16:05:21.199Z,14.31
2023-03-10T16:07:49.109Z,14.25
2023-03-10T16:10:19.084Z,14.17
2023-03-10T16:12:47.298Z,14.09
2023-03-10T16:15:18.091Z,14.03
2023-03-10T16:17:46.672Z,13.98
2023-03-10T16:20:17.053Z,13.91
2023-03-10T16:22:46.735Z,13.81
2023-03-10T16:25:16.325Z,13.69
2023-03-10T16:27:44.673Z,13.57
2023-03-10T16:30:15.042Z,13.49
2023-03-10T16:32:45.610Z,13.45
2023-03-10T16:35:13.779Z,13.39
2023-03-10T16:37:42.119Z,13.31
2023-03-10T16:40:13.653Z,13.24
2023-03-10T16:42:45.543Z,13.17
2023-03-10T16:45:13.791Z,13.12
2023-03-10T16:47:43.941Z,13.08
2023-03-10T16:50:14.345Z,13.04
2023-03-10T16:52:43.104Z,13.02
2023-03-10T16:55:17.420Z,12.99
2023-03-10T16:57:46.560Z,12.96
2023-03-10T17:00:15.904Z,12.91
2023-03-10T17:02:43.771Z,12.87
2023-03-10T17:05:13.819Z,12.83
2023-03-10T17:07:54.693Z,12.79
2023-03-10T17:10:26.913Z,12.76
2023-03-10T17:12:55.030Z,12.73
2023-03-10T17:15:22.885Z,12.71
2023-03-10T17:17:50.888Z,12.67
2023-03-10T17:20:20.356Z,12.62
2023-03-10T17:22:48.363Z,12.56
2023-03-10T17:25:16.245Z,12.51
2023-03-10T17:27:45.805Z,12.46
2023-03-10T17:30:15.554Z,12.42
2023-03-10T17:32:43.559Z,12.37
2023-03-10T17:35:11.912Z,12.35
2023-03-10T17:37:41.049Z,12.31
2023-03-10T17:40:10.555Z,12.27
2023-03-10T17:42:38.388Z,12.23
2023-03-10T17:45:09.366Z,12.21
2023-03-10T17:47:37.579Z,12.17
2023-03-10T17:50:07.419Z,12.15
2023-03-10T17:52:35.274Z,12.10
2023-03-10T17:55:03.151Z,12.07
2023-03-10T17:57:31.053Z,12.03
2023-03-10T17:59:59.212Z,12.00
2023-03-10T18:02:28.689Z,11.95
2023-03-10T18:04:56.928Z,11.91
2023-03-10T18:07:25.025Z,11.85
2023-03-10T18:09:53.819Z,11.82
2023-03-10T18:12:21.724Z,11.77
2023-03-10T18:14:49.547Z,11.73
2023-03-10T18:17:17.463Z,11.69
2023-03-10T18:19:46.765Z,11.63
2023-03-10T18:22:14.710Z,11.57
2023-03-10T18:24:42.689Z,11.54
2023-03-10T18:27:10.688Z,11.48
2023-03-10T18:29:38.823Z,11.42
2023-03-10T18:32:07.108Z,11.37
2023-03-10T18:34:35.135Z,11.27
2023-03-10T18:37:04.567Z,11.24
2023-03-10T18:39:32.444Z,11.14
2023-03-10T18:42:02.989Z,11.06
2023-03-10T18:44:31.041Z,10.98
2023-03-10T18:46:59.021Z,10.90
2023-03-10T18:49:26.955Z,10.82
2023-03-10T18:51:54.877Z,10.75
2023-03-10T18:54:24.226Z,10.69
2023-03-10T18:56:52.119Z,10.62
2023-03-10T18:59:20.244Z,10.58
2023-03-10T19:01:48.230Z,10.53
2023-03-10T19:04:16.179Z,10.51
2023-03-10T19:06:44.102Z,10.51
2023-03-10T19:09:12.976Z,10.50
2023-03-10T19:11:42.469Z,10.49
2023-03-10T19:14:10.431Z,10.50
2023-03-10T19:16:39.876Z,10.50
2023-03-10T19:19:08.289Z,10.50
2023-03-10T19:21:36.444Z,10.50
2023-03-10T19:24:04.643Z,10.54
2023-03-10T19:26:33.470Z,10.53
2023-03-10T19:29:03.103Z,10.56
2023-03-10T19:31:31.189Z,10.57
2023-03-10T19:34:00.529Z,10.59
2023-03-10T19:36:29.763Z,10.60
2023-03-10T19:38:57.623Z,10.58
2023-03-10T19:41:25.615Z,10.60
2023-03-10T19:43:54.711Z,10.63
2023-03-10T19:46:24.108Z,10.62
2023-03-10T19:48:52.060Z,10.63
2023-03-10T19:51:21.972Z,10.66
2023-03-10T19:53:51.503Z,10.68
2023-03-10T19:56:23.145Z,10.70
2023-03-10T19:58:51.758Z,10.72
2023-03-10T20:01:25.453Z,10.74
2023-03-10T20:03:54.772Z,10.75
2023-03-10T20:06:22.855Z,10.77
2023-03-10T20:08:51.608Z,10.78
2023-03-10T20:11:19.926Z,10.79
2023-03-10T20:13:48.964Z,10.81
2023-03-10T20:16:18.595Z,10.82
2023-03-10T20:18:47.975Z,10.82
2023-03-10T20:21:16.967Z,10.82
2023-03-10T20:23:47.736Z,10.80
2023-03-10T20:26:16.781Z,10.79
2023-03-10T20:28:45.541Z,10.78
2023-03-10T20:31:17.259Z,10.77
2023-03-10T20:33:45.552Z,10.75
2023-03-10T20:36:16.081Z,10.75
2023-03-10T20:38:45.417Z,10.74
2023-03-10T20:41:13.803Z,10.73
2023-03-10T20:43:41.946Z,10.70
2023-03-10T20:46:10.706Z,10.71
2023-03-10T20:48:39.144Z,10.63
2023-03-10T20:51:07.373Z,10.62
2023-03-10T20:53:37.449Z,10.61
2023-03-10T20:56:11.393Z,10.61
2023-03-10T20:58:40.064Z,10.62
2023-03-10T21:01:08.080Z,10.61
2023-03-10T21:03:36.243Z,10.62
2023-03-10T21:06:04.492Z,10.63
2023-03-10T21:08:32.428Z,10.61
2023-03-10T21:11:02.204Z,10.57
2023-03-10T21:13:30.871Z,10.53
2023-03-10T21:16:00.147Z,10.52
2023-03-10T21:18:28.245Z,10.47
2023-03-10T21:20:56.326Z,10.47
2023-03-10T21:23:24.408Z,10.43
2023-03-10T21:25:52.434Z,10.43
2023-03-10T21:28:24.017Z,10.41
2023-03-10T21:30:51.873Z,10.36
2023-03-10T21:33:23.016Z,10.35
2023-03-10T21:35:51.423Z,10.34
2023-03-10T21:38:21.551Z,10.34
2023-03-10T21:40:51.552Z,10.36
2023-03-10T21:43:19.797Z,10.36
2023-03-10T21:45:49.343Z,10.38
2023-03-10T21:48:17.863Z,10.39
2023-03-10T21:50:45.780Z,10.38
2023-03-10T21:53:14.127Z,10.38
2023-03-10T21:55:43.125Z,10.38
2023-03-10T21:58:11.177Z,10.38
2023-03-10T22:00:43.479Z,10.38
2023-03-10T22:03:12.921Z,10.40
2023-03-10T22:05:40.957Z,10.42
2023-03-10T22:08:08.888Z,10.42
2023-03-10T22:10:36.995Z,10.46
2023-03-10T22:13:05.004Z,10.47
2023-03-10T22:15:33.112Z,10.50
2023-03-10T22:18:01.173Z,10.52
2023-03-10T22:20:30.696Z,10.53
2023-03-10T22:22:58.787Z,10.56
2023-03-10T22:25:27.817Z,10.57
2023-03-10T22:27:57.769Z,10.57
2023-03-10T22:30:27.111Z,10.54
2023-03-10T22:32:55.748Z,10.53
2023-03-10T22:35:23.830Z,10.51
2023-03-10T22:37:53.559Z,10.51
2023-03-10T22:40:25.405Z,10.51
2023-03-10T22:42:54.175Z,10.52
2023-03-10T22:45:23.842Z,10.52
2023-03-10T22:47:54.939Z,10.54
2023-03-10T22:50:26.016Z,10.55
2023-03-10T22:52:55.469Z,10.54
2023-03-10T22:55:26.015Z,10.56
2023-03-10T22:57:56.534Z,10.56
2023-03-10T23:00:25.084Z,10.56
2023-03-10T23:02:53.968Z,10.56
2023-03-10T23:05:22.517Z,10.56
2023-03-10T23:07:51.013Z,10.54
2023-03-10T23:10:22.723Z,10.53
2023-03-10T23:12:51.848Z,10.50
2023-03-10T23:15:25.289Z,10.49
2023-03-10T23:17:54.484Z,10.45
2023-03-10T23:20:24.312Z,10.44
2023-03-10T23:22:52.533Z,10.42
2023-03-10T23:25:24.910Z,10.40
2023-03-10T23:27:53.471Z,10.40
2023-03-10T23:30:23.984Z,10.39
2023-03-10T23:32:52.274Z,10.39
2023-03-10T23:35:22.958Z,10.39
2023-03-10T23:37:50.909Z,10.39
2023-03-10T23:40:23.173Z,10.38
2023-03-10T23:42:51.267Z,10.40
2023-03-10T23:45:22.267Z,10.40
2023-03-10T23:47:51.141Z,10.40
2023-03-10T23:50:21.315Z,10.42
2023-03-10T23:52:49.823Z,10.42
2023-03-10T23:55:19.876Z,10.41
2023-03-10T23:57:49.566Z,10.44
